FCDMC ALERT System Data Display

6538 Pecos Basin Pool
Impoundment Stage

Impoundment Stage
Date       Time        feet      cfs
03/23/2019 12:00:00    6.05        0
03/23/2019 06:00:00    6.10       49
03/23/2019 00:00:00    6.10       49
03/22/2019 18:00:00    6.05        0
03/22/2019 12:00:00    6.05        0
03/22/2019 06:00:00    6.10       49
03/22/2019 00:00:00    6.10       49
03/21/2019 18:00:00    6.05        0
03/21/2019 12:00:00    6.05        0
03/21/2019 06:00:00    6.10       49
03/21/2019 00:00:00    6.07       19
03/20/2019 18:00:00    6.05        0
03/20/2019 12:00:00    6.05        0
03/20/2019 06:00:00    6.10       49
03/20/2019 00:00:00    6.07       19
03/19/2019 18:00:00    6.05        0
03/19/2019 12:00:00    6.05        0
03/19/2019 06:00:00    6.10       49
03/19/2019 00:00:00    6.07       19
03/18/2019 18:00:00    6.05        0
03/18/2019 12:00:00    6.05        0
03/18/2019 06:00:00    6.10       49
03/18/2019 00:00:00    6.07       19
03/17/2019 18:00:00    6.05        0
03/17/2019 12:00:00    6.05        0
03/17/2019 06:00:00    6.10       49
03/17/2019 00:00:00    6.07       19
03/16/2019 18:00:00    6.05        0
03/16/2019 12:00:00    6.05        0
03/16/2019 06:00:00    6.10       49
03/16/2019 00:00:00    6.10       49
03/15/2019 18:00:00    6.05        0
03/15/2019 12:00:00    6.05        0
03/15/2019 06:00:00    6.10       49
03/15/2019 00:00:00    6.10       49
03/14/2019 18:00:00    6.05        0
03/14/2019 06:00:00    6.12       50
03/14/2019 00:00:00    6.10       49
03/13/2019 18:00:00    6.05        0
03/13/2019 12:00:00    6.05        0
03/13/2019 06:00:00    6.10       49
03/13/2019 00:00:00    6.10       49
03/12/2019 18:00:00    6.07       19
03/12/2019 12:00:00    6.07       19
03/12/2019 06:00:00    6.10       49
03/12/2019 00:00:00    6.10       49
03/11/2019 18:00:00    6.07       19
03/11/2019 12:00:00    6.05        0
03/11/2019 06:00:00    6.10       49
03/11/2019 00:00:00    6.07       19
03/10/2019 18:00:00    6.05        0
03/10/2019 12:00:00    6.05        0
03/10/2019 06:00:00    6.10       49
03/10/2019 00:00:00    6.10       49
03/09/2019 18:00:00    6.05        0
03/09/2019 12:00:00    6.05        0
03/09/2019 06:00:00    6.12       50
03/09/2019 00:00:00    6.10       49
03/08/2019 18:00:00    6.05        0
03/08/2019 12:00:00    6.05        0
03/08/2019 06:00:00    6.07       19
03/08/2019 00:00:00    6.07       19
03/07/2019 18:00:00    6.05        0
03/07/2019 12:00:00    6.05        0
03/07/2019 06:00:00    6.10       49
03/07/2019 00:00:00    6.07       19
03/06/2019 18:00:00    6.05        0
03/06/2019 12:00:00    6.05        0
03/06/2019 06:00:00    6.07       19
03/06/2019 00:00:00    6.07       19
03/05/2019 18:00:00    6.05        0
03/05/2019 12:00:00    6.05        0
03/05/2019 06:00:00    6.10       49
03/05/2019 00:00:00    6.10       49
03/04/2019 18:00:00    6.05        0
03/04/2019 12:00:00    6.05        0
03/04/2019 06:00:00    6.10       49
03/04/2019 00:00:00    6.10       49
03/03/2019 18:00:00    6.05        0
03/03/2019 12:00:00    6.05        0
03/03/2019 06:00:00    6.10       49
03/03/2019 00:00:00    6.10       49
03/02/2019 18:00:00    6.05        0
03/02/2019 12:00:00    6.05        0
03/02/2019 06:00:00    6.05        0
03/02/2019 00:00:00    6.05        0
03/01/2019 18:00:00    6.05        0
03/01/2019 12:00:00    6.05        0
03/01/2019 06:00:00    6.05        0
03/01/2019 00:00:00    6.05        0
02/28/2019 18:00:00    6.05        0
02/28/2019 12:00:00    6.05        0
02/28/2019 06:00:00    6.05        0
02/28/2019 00:00:00    6.05        0
02/27/2019 18:00:00    6.05        0
02/27/2019 12:00:00    6.05        0
02/27/2019 06:00:00    6.05        0
02/27/2019 00:00:00    6.05        0
02/26/2019 18:00:00    6.05        0
02/26/2019 12:00:00    6.05        0